WEATHER DATA

YESTERDAY
Time Temp. Dewp. Hum. Wind dir Wind speed Wind gust Bar. 1h Prec. 24h Prec.
23:59 17.1 3.4 40 270 0.3 1.1 1021.1 0.0000 0.0000
00:10 16.9 3.2 40 270 0.3 1.1 1021.2 0.0000 0.0000
00:20 16.8 3.1 40 270 0.3 1.1 1021.1 0.0000 0.0000
00:30 16.6 3.3 41 270 0.3 1.4 1021.2 0.0000 0.0000
00:41 16.4 3.1 41 270 0.3 1.1 1021 0.0000 0.0000
00:50 16.3 3 41 270 0.3 1.1 1021 0.0000 0.0000
01:00 16.1 2.9 41 270 0.3 1.4 1020.8 0.0000 0.0000
01:10 15.9 3 42 270 0.3 1.1 1020.8 0.0000 0.0000
01:21 15.8 3.3 43 270 0.3 1.1 1020.8 0.0000 0.0000
01:33 15.5 3 43 270 0.3 1.4 1020.8 0.0000 0.0000
01:42 15.3 3.4 45 270 0.3 0.8 1020.7 0.0000 0.0000
01:52 15.2 3.4 45 270 0.3 1.1 1020.7 0.0000 0.0000
02:03 15 3.2 45 270 0.3 1.1 1020.4 0.0000 0.0000
02:13 14.8 3 45 284 0.8 1.9 1020.5 0.0000 0.0000
02:22 14.6 2.5 44 283 0.8 1.9 1020.4 0.0000 0.0000
02:32 14.4 2.3 44 284 0.8 1.4 1020.4 0.0000 0.0000
02:43 14.2 2.1 44 290 0.8 1.9 1020.2 0.0000 0.0000
02:53 14 2.3 45 285 0.8 1.4 1020 0.0000 0.0000
03:03 13.8 2.1 45 288 0.8 1.4 1020.1 0.0000 0.0000
03:13 13.6 1.9 45 285 0.8 1.9 1020 0.0000 0.0000
03:23 13.4 1.7 45 285 0.8 1.9 1019.9 0.0000 0.0000
03:33 13.2 1.8 46 284 0.8 1.4 1019.7 0.0000 0.0000
03:43 13.2 1.8 46 289 0.8 1.4 1019.8 0.0000 0.0000
03:54 13.1 1.8 46 270 0.3 1.1 1019.8 0.0000 0.0000
04:04 13.1 2.1 47 270 0.3 1.4 1019.5 0.0000 0.0000
04:13 13 1.7 46 270 0.3 1.4 1019.4 0.0000 0.0000
04:23 12.9 1.6 46 270 0.3 1.1 1019.3 0.0000 0.0000
04:34 12.7 1.7 47 270 0.3 1.1 1019.4 0.0000 0.0000
04:44 12.5 1.8 48 270 0.3 1.1 1019.2 0.0000 0.0000
04:54 12.4 1.7 48 270 0.3 1.4 1019.3 0.0000 0.0000
05:05 12.3 1.6 48 270 0.3 1.1 1019.1 0.0000 0.0000
05:14 12.2 1.8 49 270 0.3 1.4 1019 0.0000 0.0000
05:24 12.1 1.7 49 270 0.3 1.1 1018.8 0.0000 0.0000
05:34 12 1.9 50 270 0.3 1.4 1018.7 0.0000 0.0000
05:45 11.8 1.7 50 270 0.3 1.4 1018.6 0.0000 0.0000
05:55 11.6 1.8 51 270 0.8 1.4 1018.7 0.0000 0.0000
06:04 11.4 1.9 52 270 0.3 1.1 1018.8 0.0000 0.0000
06:15 11.3 1.8 52 270 0.3 1.1 1018.6 0.0000 0.0000
06:25 11.2 2 53 270 0.3 1.1 1018.5 0.0000 0.0000
06:35 11.1 2.2 54 270 0.3 1.1 1018.5 0.0000 0.0000
06:45 11 2.3 55 270 0.3 0.8 1018.5 0.0000 0.0000
06:56 10.8 2.4 56 270 0.3 1.4 1018.4 0.0000 0.0000
07:05 10.6 2.2 56 270 0.3 1.1 1018.4 0.0000 0.0000
07:15 10.6 2.4 57 270 0.3 0.8 1018.4 0.0000 0.0000
07:25 10.7 2.5 57 270 0.3 1.1 1018.5 0.0000 0.0000
07:36 10.8 2.6 57 270 0.3 1.1 1018.3 0.0000 0.0000
07:46 11 3.1 58 270 0.3 1.1 1018.4 0.0000 0.0000
07:56 11.1 2.9 57 270 0.3 1.1 1018.5 0.0000 0.0000
08:06 11.3 3.1 57 270 0.3 0.8 1018.4 0.0000 0.0000
08:16 11.6 3.4 57 270 0.3 0.8 1018.3 0.0000 0.0000
08:26 11.8 3.6 57 270 0.3 1.4 1018.4 0.0000 0.0000
08:36 12.4 4.1 57 270 0.3 1.1 1018.3 0.0000 0.0000
08:47 13 4.4 56 270 0.3 1.1 1018.3 0.0000 0.0000
08:56 13.2 4.6 56 270 0.3 1.1 1018.3 0.0000 0.0000
09:06 13.4 4.8 56 270 0.3 1.1 1018.1 0.0000 0.0000
09:17 13.7 5.3 57 257 0.8 1.4 1018.2 0.0000 0.0000
09:27 14 5.6 57 260 0.8 1.4 1018.2 0.0000 0.0000
09:37 14.5 5.6 55 255 0.8 1.9 1018.2 0.0000 0.0000
09:47 15 5.5 53 259 0.8 1.9 1018.1 0.0000 0.0000
09:57 15.5 5.4 51 258 0.8 1.9 1018 0.0000 0.0000
10:07 16.1 5.7 50 253 0.8 1.9 1018 0.0000 0.0000
10:17 16.6 5.6 48 258 1.1 2.2 1017.8 0.0000 0.0000
10:27 17.1 5.7 47 253 0.8 1.4 1017.9 0.0000 0.0000
10:38 17.5 6.1 47 259 0.8 1.9 1017.6 0.0000 0.0000
10:47 17.8 6.3 47 258 0.8 1.4 1017.5 0.0000 0.0000
10:57 18 6.2 46 270 0.8 1.9 1017.3 0.0000 0.0000
11:08 18.1 6 45 270 0.8 1.4 1017.3 0.0000 0.0000
11:18 18.1 5.7 44 259 0.8 1.9 1017.2 0.0000 0.0000
11:28 18.3 6.5 46 270 0.8 1.4 1017.1 0.0000 0.0000
11:38 18.4 6.3 45 270 0.8 1.4 1016.9 0.0000 0.0000
11:48 18.5 5.7 43 270 1.1 1.9 1016.7 0.0000 0.0000
11:58 18.8 5.6 42 258 1.1 1.9 1016.6 0.0000 0.0000
12:08 19.1 5.9 42 260 1.1 2.2 1016.6 0.0000 0.0000
12:19 19.5 5.9 41 270 0.8 1.9 1016.2 0.0000 0.0000
12:29 19.9 5.9 40 270 1.1 1.9 1016 0.0000 0.0000
12:39 20.3 6.3 40 270 0.3 1.1 1015.8 0.0000 0.0000
12:48 20.8 6.4 39 260 0.8 1.9 1015.8 0.0000 0.0000
12:59 21.2 5.6 36 299 0.8 1.9 1015.5 0.0000 0.0000
13:09 21.5 5.4 35 270 0.8 1.4 1015.5 0.0000 0.0000
13:19 21.7 6 36 270 1.1 2.2 1015.4 0.0000 0.0000
13:29 22.1 6.3 36 283 0.8 2.2 1015.2 0.0000 0.0000
13:39 22.2 6 35 270 0.8 1.9 1015.1 0.0000 0.0000
13:49 22.4 5.8 34 282 0.8 1.9 1014.8 0.0000 0.0000
13:59 22.5 5.9 34 285 0.8 2.2 1014.8 0.0000 0.0000
14:10 22.7 6 34 280 0.8 1.9 1014.8 0.0000 0.0000
14:20 22.8 5.7 33 285 0.8 1.9 1014.6 0.0000 0.0000
14:30 22.9 4.4 30 270 0.8 1.4 1014.4 0.0000 0.0000
14:39 23 4 29 286 0.8 2.5 1014.4 0.0000 0.0000
14:50 23.1 4.6 30 284 0.8 2.2 1014.2 0.0000 0.0000
15:00 23.2 4.7 30 270 0.8 1.9 1014 0.0000 0.0000
15:10 23.3 5.2 31 285 0.8 1.4 1013.8 0.0000 0.0000
15:20 23.4 4.9 30 294 0.8 2.5 1013.7 0.0000 0.0000
15:30 23.6 5.5 31 270 0.8 1.4 1013.5 0.0000 0.0000
15:40 23.6 5.5 31 270 0.3 1.9 1013.4 0.0000 0.0000
15:50 23.6 5 30 303 0.3 0.8 1013.1 0.0000 0.0000
16:01 23.8 4.7 29 270 0.3 1.1 1013.1 0.0000 0.0000
16:11 23.9 5.3 30 270 0.8 1.4 1012.8 0.0000 0.0000
16:20 23.9 5.3 30 341 0.3 1.1 1012.7 0.0000 0.0000
16:31 24 5.4 30 270 0.8 1.4 1012.6 0.0000 0.0000
16:41 24 3.9 27 270 0.8 1.9 1012.4 0.0000 0.0000
16:51 24 5.4 30 270 0.3 1.4 1012.4 0.0000 0.0000
17:01 24 4.9 29 270 0.8 1.9 1012.2 0.0000 0.0000
17:11 24 4.9 29 270 0.8 1.4 1012.1 0.0000 0.0000
17:21 23.9 4.8 29 281 0.8 2.2 1012.1 0.0000 0.0000
17:31 23.9 4.8 29 285 0.8 1.4 1011.9 0.0000 0.0000
17:41 23.8 4.7 29 270 0.8 1.1 1011.8 0.0000 0.0000
17:52 23.7 5.1 30 324 0.3 1.1 1011.8 0.0000 0.0000
18:01 23.5 5.4 31 270 0.3 1.1 1011.7 0.0000 0.0000
18:11 23.4 4.9 30 270 0.3 1.1 1011.5 0.0000 0.0000
18:22 23.2 5.2 31 255 0.8 1.4 1011.3 0.0000 0.0000
18:32 23 5 31 248 0.8 1.4 1011.3 0.0000 0.0000
18:42 22.9 4.4 30 270 0.8 1.9 1011.2 0.0000 0.0000
18:52 22.8 5.3 32 258 0.8 1.9 1010.8 0.0000 0.0000
19:02 22.7 4.7 31 270 0.8 1.9 1011 0.0000 0.0000
19:12 22.6 5.1 32 270 0.8 1.9 1010.8 0.0000 0.0000
19:22 22.4 4.9 32 270 1.1 2.2 1010.7 0.0000 0.0000
19:33 22.3 4.8 32 270 0.8 2.2 1010.5 0.0000 0.0000
19:43 22.2 4.7 32 270 0.8 1.4 1010.6 0.0000 0.0000
19:52 22.1 5.5 34 270 0.8 1.4 1010.6 0.0000 0.0000
20:02 22 5.4 34 270 0.8 1.4 1010.6 0.0000 0.0000
20:13 21.7 6.4 37 270 0.3 1.1 1010.6 0.0000 0.0000
20:23 21.5 6.2 37 270 0.3 1.1 1010.6 0.0000 0.0000
20:33 21.2 5.6 36 270 0.3 1.1 1010.7 0.0000 0.0000
20:43 21 5 35 270 0.8 1.9 1010.8 0.0000 0.0000
20:53 20.8 4.8 35 270 0.8 1.1 1010.5 0.0000 0.0000
21:03 20.7 5.1 36 270 0.3 1.1 1010.7 0.0000 0.0000
21:13 20.5 5.3 37 270 0.3 1.1 1010.7 0.0000 0.0000
21:24 20.3 5.1 37 270 0.3 1.1 1010.8 0.0000 0.0000
21:33 20.1 6.1 40 270 0.3 1.1 1010.7 0.0000 0.0000
21:43 19.9 5.2 38 281 0.8 1.1 1010.7 0.0000 0.0000
21:53 19.7 5.4 39 270 0.3 1.1 1010.7 0.0000 0.0000
22:04 19.4 6.2 42 270 0.3 0.8 1010.7 0.0000 0.0000
22:14 19 6.2 43 270 0.3 1.1 1010.7 0.0000 0.0000
22:24 18.8 5.6 42 270 0.3 1.1 1010.5 0.0000 0.0000
22:34 18.6 5.5 42 270 0.3 1.1 1010.4 0.0000 0.0000
22:44 18.5 6 44 270 0.3 1.1 1010.4 0.0000 0.0000
22:54 18.1 6.3 46 270 0.3 1.1 1010.4 0.0000 0.0000
23:04 17.8 6.3 47 270 0.3 0.8 1010.2 0.0000 0.0000
23:15 17.6 6.2 47 270 0.3 1.1 1010.1 0.0000 0.0000
23:24 17.3 6.2 48 270 0.3 1.1 1010.1 0.0000 0.0000
23:34 17.1 6.3 49 270 0.3 0.8 1010.1 0.0000 0.0000
23:45 16.8 6.3 50 270 0.3 0.8 1009.9 0.0000 0.0000
23:54 16.6 6.1 50 270 0.3 1.1 1009.9 0.0000 0.0000

DAY STATISTIC

2019-04-21
TEMPERATURE
AVERAGE
17.8
HIGH
24.0
16:31
LOW
10.6
07:05
PRESSURE
AVERAGE
1015.6
HIGH
1021.2
00:10
LOW
1009.9
23:45
DEWPOINT
AVERAGE
4.4
HIGH
6.5
11:28
LOW
1.6
04:23
HUMIDITY
AVERAGE
42
HIGH
58
07:46
LOW
27
16:41
WIND SPEED
AVERAGE
0.6
HIGH
1.1
10:17
WIND GUST
AVERAGE
1.4
HIGH
2.5
14:39
WIND DIRECTION
PREVAILING
W
96.5%
N
0.7
NE
0.0
E
0.0
SE
0.0
S
0.0
SW
0.0
W
96.5
NW
2.8
PRECIPITATION
RAIN HOUR
0.0
RAIN DAY
0.0
TEMPERATURE (°C)
LOW
10.6
HIGH
24.0
AVERAGE
17.8
PRESSURE (hpa)
LOW
1009.9
HIGH
1021.2
AVERAGE
1015.6
DEVICE